createdAt,value
2022-08-29T00:00:17.980Z,100466.50
2022-08-29T00:02:52.104Z,100462.13
2022-08-29T00:05:25.150Z,100405.06
2022-08-29T00:07:54.071Z,100469.56
2022-08-29T00:10:22.607Z,100480.63
2022-08-29T00:12:50.482Z,100448.09
2022-08-29T00:15:18.930Z,100438.47
2022-08-29T00:17:46.807Z,100495.59
2022-08-29T00:20:19.192Z,100484.56
2022-08-29T00:22:48.356Z,100489.59
2022-08-29T00:25:17.186Z,100486.84
2022-08-29T00:27:49.640Z,100485.72
2022-08-29T00:30:20.761Z,100420.22
2022-08-29T00:32:48.812Z,100495.59
2022-08-29T00:35:24.165Z,100496.78
2022-08-29T00:37:52.657Z,100428.50
2022-08-29T00:40:24.787Z,100505.41
2022-08-29T00:42:53.563Z,100504.59
2022-08-29T00:45:23.509Z,100504.59
2022-08-29T00:48:00.281Z,100435.63
2022-08-29T00:50:33.124Z,100482.59
2022-08-29T00:53:03.281Z,100503.72
2022-08-29T00:55:34.864Z,100421.63
2022-08-29T00:58:08.628Z,100500.53
2022-08-29T01:00:38.838Z,100365.84
2022-08-29T01:03:08.060Z,100362.56
2022-08-29T01:05:37.672Z,100454.22
2022-08-29T01:08:06.851Z,100500.06
2022-08-29T01:10:55.390Z,100435.44
2022-08-29T01:13:30.097Z,100459.38
2022-08-29T01:15:58.873Z,100494.63
2022-08-29T01:18:29.558Z,100464.91
2022-08-29T01:21:41.443Z,100503.72
2022-08-29T01:24:50.919Z,100452.00
2022-08-29T01:27:22.481Z,100475.16
2022-08-29T01:29:51.863Z,100462.63
2022-08-29T01:32:21.618Z,100520.38
2022-08-29T01:34:53.040Z,100468.31
2022-08-29T01:37:23.631Z,100499.16
2022-08-29T01:39:51.316Z,100490.25
2022-08-29T01:42:22.979Z,100521.53
2022-08-29T01:44:57.310Z,100518.78
2022-08-29T01:47:29.601Z,100522.34
2022-08-29T01:49:57.659Z,100488.34
2022-08-29T01:52:25.898Z,100403.66
2022-08-29T01:54:53.931Z,100513.63
2022-08-29T01:57:21.927Z,100451.81
2022-08-29T01:59:49.977Z,100466.19
2022-08-29T02:02:22.847Z,100509.50
2022-08-29T02:04:50.986Z,100508.69
2022-08-29T02:07:22.061Z,100507.88
2022-08-29T02:09:49.767Z,100508.69
2022-08-29T02:12:19.033Z,100504.31
2022-08-29T02:14:46.960Z,100501.56
2022-08-29T02:17:15.162Z,100428.13
2022-08-29T02:19:43.783Z,100437.03
2022-08-29T02:22:11.865Z,100464.66
2022-08-29T02:24:39.594Z,100470.91
2022-08-29T02:27:07.317Z,100488.78
2022-08-29T02:29:38.403Z,100497.44
2022-08-29T02:32:09.380Z,100505.38
2022-08-29T02:34:37.340Z,100482.94
2022-08-29T02:37:06.301Z,100520.72
2022-08-29T02:39:35.215Z,100477.13
2022-08-29T02:42:04.230Z,100497.53
2022-08-29T02:44:32.092Z,100425.66
2022-08-29T02:46:59.841Z,100499.59
2022-08-29T02:49:27.548Z,100481.94
2022-08-29T02:51:55.890Z,100414.19
2022-08-29T02:54:23.854Z,100496.81
2022-08-29T02:56:51.648Z,100438.06
2022-08-29T02:59:19.409Z,100475.97
2022-08-29T03:01:47.130Z,100477.13
2022-08-29T03:04:15.592Z,100391.97
2022-08-29T03:06:43.456Z,100471.69
2022-08-29T03:09:11.392Z,100441.56
2022-08-29T03:11:39.139Z,100472.38
2022-08-29T03:14:06.935Z,100499.16
2022-08-29T03:16:35.204Z,100483.09
2022-08-29T03:19:03.390Z,100489.16
2022-08-29T03:21:31.634Z,100492.81
2022-08-29T03:23:59.619Z,100474.63
2022-08-29T03:26:27.481Z,100397.59
2022-08-29T03:28:55.155Z,100449.06
2022-08-29T03:31:22.981Z,100425.75
2022-08-29T03:33:50.967Z,100484.97
2022-08-29T03:36:18.754Z,100431.06
2022-08-29T03:38:48.557Z,100452.41
2022-08-29T03:41:28.581Z,100457.78
2022-08-29T03:43:57.091Z,100404.00
2022-08-29T03:46:27.225Z,100407.22
2022-08-29T03:48:55.062Z,100488.63
2022-08-29T03:51:22.767Z,100485.06
2022-08-29T03:53:53.103Z,100392.34
2022-08-29T03:56:21.702Z,100469.28
2022-08-29T03:58:53.279Z,100436.09
2022-08-29T04:01:24.692Z,100486.19
2022-08-29T04:03:53.442Z,100488.16
2022-08-29T04:06:22.663Z,100489.31
2022-08-29T04:08:52.643Z,100494.03
2022-08-29T04:11:22.458Z,100457.84
2022-08-29T04:13:51.604Z,100496.72
2022-08-29T04:16:23.718Z,100498.31
2022-08-29T04:18:51.685Z,100471.94
2022-08-29T04:21:19.670Z,100487.97
2022-08-29T04:23:47.985Z,100470.34
2022-08-29T04:26:37.769Z,100491.88
2022-08-29T04:29:10.842Z,100496.63
2022-08-29T04:31:40.029Z,100407.09
2022-08-29T04:34:10.928Z,100471.94
2022-08-29T04:36:41.905Z,100473.44
2022-08-29T04:39:10.213Z,100489.50
2022-08-29T04:41:39.650Z,100408.81
2022-08-29T04:44:08.627Z,100477.72
2022-08-29T04:46:36.480Z,100445.59
2022-08-29T04:49:04.734Z,100449.88
2022-08-29T04:51:36.727Z,100504.44
2022-08-29T04:54:07.116Z,100501.25
2022-08-29T04:56:35.827Z,100513.09
2022-08-29T04:59:04.953Z,100461.72
2022-08-29T05:01:32.781Z,100500.44
2022-08-29T05:04:00.937Z,100453.78
2022-08-29T05:06:28.786Z,100386.50
2022-08-29T05:08:59.578Z,100494.38
2022-08-29T05:11:30.437Z,100345.88
2022-08-29T05:13:59.842Z,100493.81
2022-08-29T05:16:30.198Z,100500.09
2022-08-29T05:18:59.673Z,100452.28
2022-08-29T05:21:35.151Z,100430.97
2022-08-29T05:24:07.463Z,100506.84
2022-08-29T05:26:39.531Z,100486.91
2022-08-29T05:29:09.042Z,100463.16
2022-08-29T05:31:41.317Z,100457.53
2022-08-29T05:34:32.519Z,100481.38
2022-08-29T05:36:59.579Z,100427.97
2022-08-29T05:39:30.310Z,100469.28
2022-08-29T05:41:58.861Z,100514.78
2022-08-29T05:44:34.218Z,100524.69
2022-08-29T05:47:08.671Z,100419.16
2022-08-29T05:49:38.400Z,100446.25
2022-08-29T05:52:07.519Z,100471.59
2022-08-29T05:54:38.309Z,100500.50
2022-08-29T05:57:07.819Z,100527.78
2022-08-29T05:59:36.633Z,100431.72
2022-08-29T06:02:05.544Z,100528.50
2022-08-29T06:04:34.892Z,100434.03
2022-08-29T06:07:03.495Z,100495.25
2022-08-29T06:09:31.118Z,100535.19
2022-08-29T06:11:58.943Z,100472.91
2022-08-29T06:14:27.776Z,100455.59
2022-08-29T06:16:56.292Z,100493.50
2022-08-29T06:19:24.162Z,100522.78
2022-08-29T06:21:55.500Z,100534.09
2022-08-29T06:24:23.312Z,100541.59
2022-08-29T06:26:51.075Z,100496.34
2022-08-29T06:29:18.675Z,100532.97
2022-08-29T06:31:46.436Z,100533.78
2022-08-29T06:34:14.313Z,100535.38
2022-08-29T06:36:42.150Z,100514.50
2022-08-29T06:39:11.694Z,100443.22
2022-08-29T06:41:41.124Z,100422.72
2022-08-29T06:44:09.915Z,100485.03
2022-08-29T06:46:41.001Z,100483.13
2022-08-29T06:49:11.824Z,100486.53
2022-08-29T06:51:42.279Z,100531.06
2022-08-29T06:54:11.677Z,100518.44
2022-08-29T06:56:40.113Z,100485.19
2022-08-29T06:59:10.971Z,100443.66
2022-08-29T07:01:42.277Z,100524.19
2022-08-29T07:04:14.360Z,100521.78
2022-08-29T07:06:43.420Z,100422.66
2022-08-29T07:09:11.810Z,100512.78
2022-08-29T07:11:41.852Z,100481.47
2022-08-29T07:14:11.322Z,100407.50
2022-08-29T07:16:39.319Z,100498.28
2022-08-29T07:19:10.283Z,100485.31
2022-08-29T07:21:39.200Z,100416.22
2022-08-29T07:24:07.597Z,100494.75
2022-08-29T07:26:41.594Z,100511.31
2022-08-29T07:29:21.259Z,100512.09
2022-08-29T07:31:49.394Z,100522.06
2022-08-29T07:34:20.575Z,100511.50
2022-08-29T07:36:48.966Z,100512.66
2022-08-29T07:39:18.141Z,100513.69
2022-08-29T07:41:46.315Z,100458.75
2022-08-29T07:44:14.063Z,100499.72
2022-08-29T07:46:42.066Z,100442.88
2022-08-29T07:49:11.981Z,100495.38
2022-08-29T07:51:42.381Z,100484.78
2022-08-29T07:54:17.049Z,100454.00
2022-08-29T07:56:46.767Z,100484.53
2022-08-29T07:59:15.111Z,100482.63
2022-08-29T08:01:43.272Z,100460.81
2022-08-29T08:04:11.861Z,100472.69
2022-08-29T08:06:42.649Z,100390.84
2022-08-29T08:09:11.184Z,100476.50
2022-08-29T08:11:40.384Z,100416.19
2022-08-29T08:14:10.696Z,100477.25
2022-08-29T08:16:38.855Z,100464.41
2022-08-29T08:19:15.058Z,100468.50
2022-08-29T08:21:49.886Z,100492.50
2022-08-29T08:24:20.155Z,100472.53
2022-08-29T08:26:49.547Z,100395.97
2022-08-29T08:29:18.396Z,100487.50
2022-08-29T08:31:49.619Z,100403.72
2022-08-29T08:34:18.892Z,100438.47
2022-08-29T08:36:46.963Z,100508.53
2022-08-29T08:39:16.031Z,100463.59
2022-08-29T08:42:04.557Z,100512.56
2022-08-29T08:45:16.339Z,100456.28
2022-08-29T08:47:50.167Z,100461.34
2022-08-29T08:50:30.992Z,100437.28
2022-08-29T08:53:05.466Z,100458.78
2022-08-29T08:55:55.175Z,100517.53
2022-08-29T08:58:51.581Z,100531.78
2022-08-29T09:01:32.750Z,100539.72
2022-08-29T09:04:19.514Z,100540.63
2022-08-29T09:07:22.461Z,100542.66
2022-08-29T09:09:55.888Z,100548.63
2022-08-29T09:12:58.681Z,100561.31
2022-08-29T09:15:34.253Z,100573.59
2022-08-29T09:18:13.536Z,100575.03
2022-08-29T09:20:42.396Z,100545.78
2022-08-29T09:23:25.683Z,100589.84
2022-08-29T09:25:54.629Z,100532.50
2022-08-29T09:28:22.565Z,100590.72
2022-08-29T09:31:27.583Z,100499.63
2022-08-29T09:34:11.836Z,100614.53
2022-08-29T09:36:49.331Z,100523.75
2022-08-29T09:39:16.975Z,100619.72
2022-08-29T09:41:48.073Z,100626.03
2022-08-29T09:44:23.186Z,100625.59
2022-08-29T09:47:11.193Z,100632.31
2022-08-29T09:49:42.143Z,100625.59
2022-08-29T09:52:15.572Z,100637.03
2022-08-29T09:54:45.280Z,100637.41
2022-08-29T09:57:19.072Z,100649.63
2022-08-29T10:00:08.729Z,100615.25
2022-08-29T10:02:43.908Z,100543.34
2022-08-29T10:05:47.233Z,100655.00
2022-08-29T10:08:35.247Z,100612.22
2022-08-29T10:11:20.410Z,100655.25
2022-08-29T10:13:53.979Z,100647.31
2022-08-29T10:16:38.374Z,100632.28
2022-08-29T10:19:41.521Z,100638.56
2022-08-29T10:22:30.129Z,100560.94
2022-08-29T10:25:06.362Z,100566.19
2022-08-29T10:27:43.463Z,100640.03
2022-08-29T10:30:14.108Z,100646.06
2022-08-29T10:32:41.786Z,100646.06
2022-08-29T10:35:24.606Z,100642.94
2022-08-29T10:38:00.365Z,100652.41
2022-08-29T10:40:38.262Z,100645.34
2022-08-29T10:43:20.512Z,100653.28
2022-08-29T10:46:04.971Z,100659.25
2022-08-29T10:49:11.503Z,100650.94
2022-08-29T10:52:19.575Z,100659.63
2022-08-29T10:55:12.911Z,100669.06
2022-08-29T10:57:43.957Z,100663.53
2022-08-29T11:00:20.319Z,100669.06
2022-08-29T11:03:20.822Z,100667.91
2022-08-29T11:05:56.793Z,100646.56
2022-08-29T11:08:31.092Z,100628.91
2022-08-29T11:10:58.933Z,100642.38
2022-08-29T11:13:41.445Z,100662.13
2022-08-29T11:16:46.642Z,100648.72
2022-08-29T11:19:24.993Z,100638.81
2022-08-29T11:22:14.317Z,100613.31
2022-08-29T11:24:47.207Z,100598.16
2022-08-29T11:27:53.681Z,100497.47
2022-08-29T11:30:38.819Z,100554.69
2022-08-29T11:33:19.051Z,100464.41
2022-08-29T11:36:08.493Z,100503.38
2022-08-29T11:39:07.145Z,100455.13
2022-08-29T11:41:49.886Z,100381.88
2022-08-29T11:44:42.871Z,100483.22
2022-08-29T11:47:40.650Z,100492.31
2022-08-29T11:50:16.233Z,100504.16
2022-08-29T11:52:55.130Z,100448.91
2022-08-29T11:55:29.204Z,100475.50
2022-08-29T11:58:06.495Z,100498.78
2022-08-29T12:01:06.938Z,100488.63
2022-08-29T12:03:44.471Z,100489.47
2022-08-29T12:06:19.609Z,100476.16
2022-08-29T12:09:02.873Z,100468.53
2022-08-29T12:12:07.464Z,100467.97
2022-08-29T12:14:53.218Z,100475.81
2022-08-29T12:17:31.933Z,100489.00
2022-08-29T12:20:08.335Z,100496.50
2022-08-29T12:22:56.092Z,100493.31
2022-08-29T12:25:43.511Z,100467.97
2022-08-29T12:28:21.101Z,100460.84
2022-08-29T12:30:50.508Z,100440.06
2022-08-29T12:33:36.411Z,100448.13
2022-08-29T12:36:13.293Z,100446.53
2022-08-29T12:39:23.440Z,100448.13
2022-08-29T12:41:57.061Z,100444.91
2022-08-29T12:44:35.235Z,100443.31
2022-08-29T12:47:09.180Z,100420.63
2022-08-29T12:49:53.468Z,100441.22
2022-08-29T12:52:26.978Z,100471.00
2022-08-29T12:54:57.499Z,100470.56
2022-08-29T12:57:37.062Z,100457.09
2022-08-29T13:00:12.066Z,100449.16
2022-08-29T13:02:40.011Z,100433.66
2022-08-29T13:05:26.833Z,100462.41
2022-08-29T13:08:13.082Z,100481.19
2022-08-29T13:11:00.009Z,100492.66
2022-08-29T13:13:29.371Z,100512.88
2022-08-29T13:16:02.942Z,100507.69
2022-08-29T13:18:44.647Z,100464.75
2022-08-29T13:21:25.717Z,100536.19
2022-08-29T13:24:10.523Z,100454.16
2022-08-29T13:26:43.120Z,100529.91
2022-08-29T13:32:26.953Z,100532.69
2022-08-29T13:35:13.588Z,100521.97
2022-08-29T13:37:46.241Z,100512.66
2022-08-29T13:40:51.395Z,100531.09
2022-08-29T13:43:48.493Z,100511.34
2022-08-29T13:46:24.898Z,100418.56
2022-08-29T13:49:02.670Z,100518.16
2022-08-29T13:51:30.713Z,100526.53
2022-08-29T13:53:58.507Z,100462.50
2022-08-29T13:56:32.748Z,100521.88
2022-08-29T13:59:00.759Z,100529.00
2022-08-29T14:01:30.281Z,100524.28
2022-08-29T14:04:15.253Z,100470.56
2022-08-29T14:06:47.773Z,100536.16
2022-08-29T14:09:19.719Z,100527.84
2022-08-29T14:11:47.358Z,100495.31
2022-08-29T14:14:15.375Z,100432.03
2022-08-29T14:16:44.145Z,100504.81
2022-08-29T14:19:12.027Z,100522.69
2022-08-29T14:21:39.638Z,100424.25
2022-08-29T14:24:07.451Z,100453.03
2022-08-29T14:26:35.357Z,100348.75
2022-08-29T14:29:03.514Z,100496.22
2022-08-29T14:31:32.446Z,100421.19
2022-08-29T14:34:00.159Z,100471.66
2022-08-29T14:36:29.541Z,100491.84
2022-08-29T14:38:57.972Z,100478.31
2022-08-29T14:41:25.763Z,100467.78
2022-08-29T14:43:54.535Z,100470.19
2022-08-29T14:46:22.958Z,100495.44
2022-08-29T14:48:50.840Z,100363.31
2022-08-29T14:51:19.064Z,100503.00
2022-08-29T14:53:54.389Z,100520.41
2022-08-29T14:56:47.650Z,100469.56
2022-08-29T14:59:21.382Z,100463.41
2022-08-29T15:01:54.140Z,100525.50
2022-08-29T15:04:35.065Z,100460.75
2022-08-29T15:07:09.983Z,100494.72
2022-08-29T15:09:39.057Z,100498.94
2022-08-29T15:12:07.100Z,100473.06
2022-08-29T15:14:34.938Z,100506.28
2022-08-29T15:17:04.383Z,100408.25
2022-08-29T15:22:22.491Z,100497.97
2022-08-29T15:24:51.590Z,100498.38
2022-08-29T15:27:26.289Z,100437.94
2022-08-29T15:29:56.217Z,100515.00
2022-08-29T15:32:24.406Z,100436.69
2022-08-29T15:34:52.161Z,100472.84
2022-08-29T15:37:19.851Z,100413.19
2022-08-29T15:39:49.941Z,100478.63
2022-08-29T15:42:28.679Z,100415.50
2022-08-29T15:44:59.179Z,100419.53
2022-08-29T15:47:30.415Z,100461.59
2022-08-29T15:49:58.974Z,100426.72
2022-08-29T15:52:27.195Z,100413.53
2022-08-29T15:54:55.099Z,100375.13
2022-08-29T15:57:22.749Z,100456.06
2022-08-29T15:59:58.820Z,100443.03
2022-08-29T16:02:28.356Z,100420.00
2022-08-29T16:04:57.458Z,100356.56
2022-08-29T16:07:29.081Z,100404.44
2022-08-29T16:10:02.074Z,100401.91
2022-08-29T16:12:31.669Z,100420.81
2022-08-29T16:15:01.511Z,100450.09
2022-08-29T16:17:31.612Z,100431.53
2022-08-29T16:20:01.325Z,100443.75
2022-08-29T16:22:29.697Z,100439.81
2022-08-29T16:24:58.117Z,100424.69
2022-08-29T16:27:26.132Z,100349.41
2022-08-29T16:29:54.681Z,100442.59
2022-08-29T16:32:22.377Z,100424.38
2022-08-29T16:34:51.449Z,100412.25
2022-08-29T16:37:19.681Z,100343.25
2022-08-29T16:39:47.642Z,100372.81
2022-08-29T16:42:15.669Z,100430.59
2022-08-29T16:44:44.554Z,100373.59
2022-08-29T16:47:12.360Z,100364.59
2022-08-29T16:49:40.056Z,100446.69
2022-08-29T16:52:07.912Z,100424.41
2022-08-29T16:54:35.563Z,100368.78
2022-08-29T16:57:03.374Z,100381.16
2022-08-29T16:59:31.766Z,100354.81
2022-08-29T17:02:00.600Z,100400.44
2022-08-29T17:04:29.645Z,100438.16
2022-08-29T17:06:57.539Z,100365.22
2022-08-29T17:09:25.719Z,100381.25
2022-08-29T17:11:54.679Z,100444.84
2022-08-29T17:14:25.538Z,100435.75
2022-08-29T17:16:55.385Z,100438.88
2022-08-29T17:19:24.531Z,100382.69
2022-08-29T17:21:52.431Z,100400.66
2022-08-29T17:24:20.943Z,100442.78
2022-08-29T17:26:49.603Z,100356.16
2022-08-29T17:29:17.669Z,100444.47
2022-08-29T17:31:46.160Z,100461.69
2022-08-29T17:34:14.516Z,100407.22
2022-08-29T17:36:44.331Z,100410.41
2022-08-29T17:39:13.150Z,100450.09
2022-08-29T17:41:40.930Z,100436.41
2022-08-29T17:44:12.177Z,100312.88
2022-08-29T17:46:39.710Z,100426.88
2022-08-29T17:49:10.521Z,100433.41
2022-08-29T17:51:39.665Z,100411.88
2022-08-29T17:54:12.354Z,100429.06
2022-08-29T17:56:54.687Z,100403.81
2022-08-29T17:59:24.970Z,100438.44
2022-08-29T18:01:52.958Z,100431.09
2022-08-29T18:04:20.981Z,100428.19
2022-08-29T18:06:48.999Z,100446.81
2022-08-29T18:09:16.666Z,100410.72
2022-08-29T18:11:47.042Z,100394.25
2022-08-29T18:14:14.756Z,100429.16
2022-08-29T18:16:42.872Z,100461.53
2022-08-29T18:19:13.254Z,100479.31
2022-08-29T18:21:41.534Z,100396.75
2022-08-29T18:24:13.895Z,100483.66
2022-08-29T18:26:43.195Z,100417.97
2022-08-29T18:29:11.073Z,100432.59
2022-08-29T18:31:39.383Z,100506.53
2022-08-29T18:34:07.761Z,100486.94
2022-08-29T18:36:40.000Z,100502.81
2022-08-29T18:39:08.998Z,100464.00
2022-08-29T18:41:36.863Z,100521.13
2022-08-29T18:44:05.191Z,100493.16
2022-08-29T18:46:35.014Z,100577.75
2022-08-29T18:49:03.520Z,100548.13
2022-08-29T18:51:33.244Z,100550.94
2022-08-29T18:54:06.879Z,100612.56
2022-08-29T18:56:34.682Z,100607.16
2022-08-29T18:59:02.598Z,100620.50
2022-08-29T19:01:34.330Z,100608.56
2022-08-29T19:04:02.696Z,100635.41
2022-08-29T19:06:30.706Z,100646.84
2022-08-29T19:08:59.320Z,100558.00
2022-08-29T19:11:29.607Z,100657.44
2022-08-29T19:13:57.523Z,100657.00
2022-08-29T19:16:25.688Z,100627.50
2022-08-29T19:18:53.532Z,100636.03
2022-08-29T19:21:21.254Z,100602.06
2022-08-29T19:23:52.206Z,100620.50
2022-08-29T19:26:24.750Z,100571.28
2022-08-29T19:28:55.321Z,100545.97
2022-08-29T19:31:31.959Z,100529.78
2022-08-29T19:34:01.035Z,100526.00
2022-08-29T19:36:28.768Z,100554.63
2022-08-29T19:38:57.256Z,100516.91
2022-08-29T19:41:25.391Z,100508.25
2022-08-29T19:43:53.772Z,100518.16
2022-08-29T19:46:23.878Z,100481.03
2022-08-29T19:48:52.731Z,100460.50
2022-08-29T19:51:24.539Z,100448.19
2022-08-29T19:53:57.454Z,100356.75
2022-08-29T19:56:26.634Z,100425.28
2022-08-29T19:58:55.886Z,100449.00
2022-08-29T20:01:23.658Z,100412.19
2022-08-29T20:03:52.266Z,100381.88
2022-08-29T20:06:20.722Z,100486.19
2022-08-29T20:08:50.221Z,100439.97
2022-08-29T20:11:22.331Z,100516.56
2022-08-29T20:13:51.768Z,100513.78
2022-08-29T20:16:25.041Z,100526.47
2022-08-29T20:18:53.311Z,100453.41
2022-08-29T20:21:23.299Z,100513.56
2022-08-29T20:23:57.228Z,100383.75
2022-08-29T20:26:32.584Z,100434.47
2022-08-29T20:29:02.619Z,100532.72
2022-08-29T20:31:30.411Z,100532.72
2022-08-29T20:33:58.451Z,100539.06
2022-08-29T20:36:46.455Z,100541.03
2022-08-29T20:39:17.880Z,100557.63
2022-08-29T20:41:51.696Z,100557.72
2022-08-29T20:44:20.459Z,100517.44
2022-08-29T20:46:49.684Z,100588.41
2022-08-29T20:49:20.266Z,100567.72
2022-08-29T20:51:49.413Z,100611.72
2022-08-29T20:54:20.648Z,100539.72
2022-08-29T20:56:48.870Z,100623.56
2022-08-29T20:59:20.978Z,100649.63
2022-08-29T21:01:51.133Z,100622.97
2022-08-29T21:04:37.798Z,100634.16
2022-08-29T21:07:12.302Z,100635.34
2022-08-29T21:09:43.492Z,100595.28
2022-08-29T21:12:15.230Z,100603.31
2022-08-29T21:14:44.902Z,100572.66
2022-08-29T21:17:15.113Z,100519.09
2022-08-29T21:19:46.644Z,100502.06
2022-08-29T21:22:20.658Z,100562.97
2022-08-29T21:24:53.998Z,100505.56
2022-08-29T21:27:21.904Z,100473.75
2022-08-29T21:29:49.695Z,100520.16
2022-08-29T21:32:17.472Z,100496.59
2022-08-29T21:34:45.507Z,100440.41
2022-08-29T21:37:13.179Z,100464.34
2022-08-29T21:39:41.339Z,100460.59
2022-08-29T21:42:09.032Z,100390.31
2022-08-29T21:44:43.948Z,100358.25
2022-08-29T21:47:15.932Z,100467.25
2022-08-29T21:49:45.510Z,100428.88
2022-08-29T21:52:13.221Z,100383.00
2022-08-29T21:54:41.323Z,100475.56
2022-08-29T22:00:26.274Z,100526.06
2022-08-29T22:02:55.650Z,100490.28
2022-08-29T22:05:23.561Z,100429.94
2022-08-29T22:07:53.603Z,100522.75
2022-08-29T22:10:26.258Z,100494.66
2022-08-29T22:12:57.702Z,100515.16
2022-08-29T22:15:44.423Z,100509.94
2022-08-29T22:18:14.865Z,100515.09
2022-08-29T22:20:46.796Z,100488.09
2022-08-29T22:23:18.861Z,100472.56
2022-08-29T22:25:47.963Z,100380.75
2022-08-29T22:28:15.765Z,100553.63
2022-08-29T22:30:44.677Z,100561.66
2022-08-29T22:33:16.351Z,100599.03
2022-08-29T22:35:45.593Z,100595.38
2022-08-29T22:38:13.765Z,100637.28
2022-08-29T22:40:41.715Z,100617.22
2022-08-29T22:43:09.510Z,100597.16
2022-08-29T22:45:37.337Z,100595.81
2022-08-29T22:48:05.774Z,100526.38
2022-08-29T22:50:33.572Z,100585.56
2022-08-29T22:53:02.158Z,100587.63
2022-08-29T22:57:58.787Z,100536.16
2022-08-29T23:00:27.746Z,100552.31
2022-08-29T23:02:55.653Z,100571.28
2022-08-29T23:05:24.933Z,100532.06
2022-08-29T23:07:52.614Z,100493.63
2022-08-29T23:10:22.128Z,100533.13
2022-08-29T23:12:50.701Z,100480.38
2022-08-29T23:15:19.377Z,100557.09
2022-08-29T23:17:47.272Z,100538.94
2022-08-29T23:20:17.191Z,100573.69
2022-08-29T23:22:49.103Z,100585.56
2022-08-29T23:25:16.943Z,100602.13
2022-08-29T23:27:44.759Z,100496.44
2022-08-29T23:30:14.543Z,100616.31
2022-08-29T23:32:42.255Z,100495.28
2022-08-29T23:35:10.194Z,100556.72
2022-08-29T23:37:38.545Z,100534.44
2022-08-29T23:40:09.365Z,100610.53
2022-08-29T23:42:37.664Z,100611.69
2022-08-29T23:45:07.257Z,100573.78
2022-08-29T23:47:35.391Z,100545.31
2022-08-29T23:50:05.814Z,100557.59
2022-08-29T23:52:33.629Z,100517.28
2022-08-29T23:55:02.294Z,100613.19
2022-08-29T23:57:29.874Z,100577.34
